createdAt,value
2018-04-11T00:00:53.849Z,12.57
2018-04-11T00:01:53.857Z,12.71
2018-04-11T00:02:53.805Z,12.66
2018-04-11T00:03:53.870Z,12.69
2018-04-11T00:04:53.753Z,12.66
2018-04-11T00:05:53.782Z,12.69
2018-04-11T00:06:53.714Z,12.64
2018-04-11T00:07:53.794Z,12.66
2018-04-11T00:08:53.665Z,12.62
2018-04-11T00:09:53.704Z,12.62
2018-04-11T00:10:53.622Z,12.56
2018-04-11T00:11:53.615Z,12.69
2018-04-11T00:12:53.576Z,12.67
2018-04-11T00:13:53.625Z,12.67
2018-04-11T00:14:53.530Z,12.59
2018-04-11T00:15:53.536Z,12.67
2018-04-11T00:16:53.486Z,12.60
2018-04-11T00:17:53.549Z,12.67
2018-04-11T00:18:53.441Z,12.67
2018-04-11T00:19:53.461Z,12.63
2018-04-11T00:20:53.399Z,12.54
2018-04-11T00:21:53.476Z,12.63
2018-04-11T00:22:53.355Z,12.64
2018-04-11T00:23:53.387Z,12.57
2018-04-11T00:24:53.311Z,12.63
2018-04-11T00:25:53.399Z,12.63
2018-04-11T00:26:53.265Z,12.63
2018-04-11T00:27:53.307Z,12.59
2018-04-11T00:28:53.220Z,12.62
2018-04-11T00:29:53.219Z,12.64
2018-04-11T00:30:53.174Z,12.67
2018-04-11T00:31:53.227Z,12.62
2018-04-11T00:32:53.125Z,12.62
2018-04-11T00:33:53.137Z,12.63
2018-04-11T00:34:53.081Z,12.63
2018-04-11T00:35:53.145Z,12.64
2018-04-11T00:36:53.034Z,12.52
2018-04-11T00:37:53.060Z,12.54
2018-04-11T00:38:52.989Z,12.54
2018-04-11T00:39:53.070Z,12.52
2018-04-11T00:40:52.943Z,12.54
2018-04-11T00:41:52.980Z,12.49
2018-04-11T00:42:52.897Z,12.54
2018-04-11T00:43:52.892Z,12.48
2018-04-11T00:44:52.851Z,12.48
2018-04-11T00:45:52.908Z,12.54
2018-04-11T00:46:52.811Z,12.52
2018-04-11T00:47:52.817Z,12.57
2018-04-11T00:48:52.763Z,12.44
2018-04-11T00:49:52.830Z,12.51
2018-04-11T00:50:52.718Z,12.49
2018-04-11T00:51:52.742Z,12.56
2018-04-11T00:52:52.675Z,12.52
2018-04-11T00:53:52.753Z,12.54
2018-04-11T00:54:52.630Z,12.45
2018-04-11T00:55:52.662Z,12.52
2018-04-11T00:56:52.580Z,12.56
2018-04-11T00:57:52.676Z,12.51
2018-04-11T00:58:52.539Z,12.51
2018-04-11T00:59:52.579Z,12.46
2018-04-11T01:00:52.495Z,12.54
2018-04-11T01:01:52.489Z,12.45
2018-04-11T01:02:52.444Z,12.48
2018-04-11T01:03:52.502Z,12.44
2018-04-11T01:04:52.399Z,12.51
2018-04-11T01:05:52.410Z,12.52
2018-04-11T01:06:52.354Z,12.52
2018-04-11T01:07:52.422Z,12.54
2018-04-11T01:08:52.309Z,12.54
2018-04-11T01:09:52.334Z,12.52
2018-04-11T01:10:52.263Z,12.51
2018-04-11T01:11:52.349Z,12.60
2018-04-11T01:12:52.266Z,12.63
2018-04-11T01:13:52.256Z,12.57
2018-04-11T01:14:52.176Z,12.63
2018-04-11T01:15:52.165Z,12.60
2018-04-11T01:16:52.128Z,12.52
2018-04-11T01:17:52.176Z,12.51
2018-04-11T01:18:52.082Z,12.54
2018-04-11T01:19:52.089Z,12.46
2018-04-11T01:20:52.037Z,12.41
2018-04-11T01:21:52.102Z,12.42
2018-04-11T01:22:51.992Z,12.48
2018-04-11T01:23:52.012Z,12.48
2018-04-11T01:24:51.946Z,12.31
2018-04-11T01:25:52.024Z,12.44
2018-04-11T01:26:51.903Z,12.44
2018-04-11T01:27:51.934Z,12.39
2018-04-11T01:28:51.862Z,12.31
2018-04-11T01:29:51.944Z,12.44
2018-04-11T01:30:51.808Z,12.39
2018-04-11T01:31:51.858Z,12.44
2018-04-11T01:32:51.767Z,12.33
2018-04-11T01:33:51.764Z,12.41
2018-04-11T01:34:51.720Z,12.34
2018-04-11T01:35:51.777Z,12.33
2018-04-11T01:36:51.671Z,12.37
2018-04-11T01:37:51.692Z,12.41
2018-04-11T01:38:51.634Z,12.29
2018-04-11T01:39:51.700Z,12.29
2018-04-11T01:40:51.584Z,12.41
2018-04-11T01:41:51.611Z,12.34
2018-04-11T01:42:51.532Z,12.37
2018-04-11T01:43:51.623Z,12.31
2018-04-11T01:44:51.485Z,12.29
2018-04-11T01:45:51.535Z,12.29
2018-04-11T01:46:51.439Z,12.31
2018-04-11T01:47:51.448Z,12.29
2018-04-11T01:48:51.395Z,12.31
2018-04-11T01:49:51.464Z,12.29
2018-04-11T01:50:51.351Z,12.27
2018-04-11T01:51:51.367Z,12.33
2018-04-11T01:52:51.304Z,12.29
2018-04-11T01:53:51.382Z,12.33
2018-04-11T01:54:51.256Z,12.30
2018-04-11T01:55:51.290Z,12.34
2018-04-11T01:56:51.212Z,12.33
2018-04-11T01:57:51.199Z,12.34
2018-04-11T01:58:51.164Z,12.29
2018-04-11T01:59:51.213Z,12.42
2018-04-11T02:00:51.118Z,12.37
2018-04-11T02:01:51.127Z,12.34
2018-04-11T02:02:51.073Z,12.33
2018-04-11T02:03:51.136Z,12.34
2018-04-11T02:04:51.028Z,12.29
2018-04-11T02:05:51.050Z,12.31
2018-04-11T02:06:50.984Z,12.31
2018-04-11T02:07:51.060Z,12.34
2018-04-11T02:08:50.934Z,12.29
2018-04-11T02:09:50.973Z,12.30
2018-04-11T02:10:50.888Z,12.20
2018-04-11T02:11:50.887Z,12.26
2018-04-11T02:12:50.845Z,12.29
2018-04-11T02:13:50.895Z,12.30
2018-04-11T02:14:50.797Z,12.20
2018-04-11T02:15:50.803Z,12.30
2018-04-11T02:16:50.747Z,12.19
2018-04-11T02:17:50.816Z,12.19
2018-04-11T02:18:50.702Z,12.26
2018-04-11T02:19:50.726Z,12.15
2018-04-11T02:20:50.655Z,12.19
2018-04-11T02:21:50.739Z,12.23
2018-04-11T02:22:50.607Z,12.23
2018-04-11T02:23:50.643Z,12.20
2018-04-11T02:24:50.561Z,12.12
2018-04-11T02:25:50.555Z,12.21
2018-04-11T02:26:50.516Z,12.20
2018-04-11T02:27:50.568Z,12.12
2018-04-11T02:28:50.472Z,12.05
2018-04-11T02:29:50.479Z,12.05
2018-04-11T02:30:50.424Z,12.09
2018-04-11T02:31:50.493Z,12.09
2018-04-11T02:32:50.375Z,12.05
2018-04-11T02:33:50.402Z,12.05
2018-04-11T02:34:50.327Z,12.06
2018-04-11T02:35:50.413Z,12.06
2018-04-11T02:36:50.280Z,12.01
2018-04-11T02:37:50.325Z,12.02
2018-04-11T02:38:50.239Z,12.01
2018-04-11T02:39:50.236Z,12.06
2018-04-11T02:40:50.191Z,11.97
2018-04-11T02:41:50.247Z,12.06
2018-04-11T02:42:50.145Z,12.02
2018-04-11T02:43:50.155Z,12.02
2018-04-11T02:44:50.109Z,12.13
2018-04-11T02:45:50.169Z,12.06
2018-04-11T02:46:50.050Z,12.05
2018-04-11T02:47:50.078Z,12.12
2018-04-11T02:48:50.005Z,12.08
2018-04-11T02:49:50.092Z,12.05
2018-04-11T02:50:49.955Z,12.04
2018-04-11T02:51:50.001Z,12.05
2018-04-11T02:52:49.909Z,12.08
2018-04-11T02:53:49.912Z,12.05
2018-04-11T02:54:49.868Z,12.09
2018-04-11T02:55:49.925Z,12.16
2018-04-11T02:56:49.812Z,12.15
2018-04-11T02:57:49.833Z,12.15
2018-04-11T02:58:49.769Z,12.13
2018-04-11T02:59:49.845Z,12.19
2018-04-11T03:00:49.724Z,12.19
2018-04-11T03:01:49.757Z,12.24
2018-04-11T03:02:49.678Z,12.20
2018-04-11T03:03:49.669Z,12.19
2018-04-11T03:04:49.633Z,12.15
2018-04-11T03:05:49.678Z,12.29
2018-04-11T03:06:49.589Z,12.26
2018-04-11T03:07:49.591Z,12.27
2018-04-11T03:08:49.536Z,12.27
2018-04-11T03:09:49.601Z,12.29
2018-04-11T03:10:49.490Z,12.30
2018-04-11T03:11:49.513Z,12.19
2018-04-11T03:12:49.444Z,12.26
2018-04-11T03:13:49.522Z,12.29
2018-04-11T03:14:49.398Z,12.39
2018-04-11T03:15:49.434Z,12.31
2018-04-11T03:16:49.351Z,12.29
2018-04-11T03:17:49.445Z,12.31
2018-04-11T03:18:49.309Z,12.23
2018-04-11T03:19:49.358Z,12.30
2018-04-11T03:20:49.257Z,12.37
2018-04-11T03:21:49.296Z,12.33
2018-04-11T03:22:49.216Z,12.31
2018-04-11T03:23:49.279Z,12.33
2018-04-11T03:24:49.166Z,12.29
2018-04-11T03:25:49.187Z,12.30
2018-04-11T03:26:49.119Z,12.31
2018-04-11T03:27:49.202Z,12.34
2018-04-11T03:28:49.072Z,12.24
2018-04-11T03:29:49.107Z,12.31
2018-04-11T03:30:49.029Z,12.33
2018-04-11T03:31:49.023Z,12.37
2018-04-11T03:32:48.984Z,12.30
2018-04-11T03:33:49.033Z,12.33
2018-04-11T03:34:48.935Z,12.29
2018-04-11T03:35:48.943Z,12.16
2018-04-11T03:36:48.887Z,12.21
2018-04-11T03:37:48.955Z,12.20
2018-04-11T03:38:48.840Z,12.16
2018-04-11T03:39:48.864Z,12.12
2018-04-11T03:40:48.796Z,12.08
2018-04-11T03:41:48.876Z,12.06
2018-04-11T03:42:48.755Z,12.09
2018-04-11T03:43:48.788Z,12.05
2018-04-11T03:44:48.704Z,12.04
2018-04-11T03:45:48.699Z,12.06
2018-04-11T03:46:48.661Z,12.05
2018-04-11T03:47:48.715Z,12.04
2018-04-11T03:48:48.613Z,12.04
2018-04-11T03:49:48.627Z,12.01
2018-04-11T03:50:48.568Z,11.94
2018-04-11T03:51:48.637Z,11.90
2018-04-11T03:52:48.520Z,11.99
2018-04-11T03:53:48.549Z,11.99
2018-04-11T03:54:48.524Z,12.01
2018-04-11T03:55:48.559Z,12.01
2018-04-11T03:56:48.431Z,11.99
2018-04-11T03:57:48.473Z,11.93
2018-04-11T03:58:48.382Z,12.02
2018-04-11T03:59:48.376Z,12.01
2018-04-11T04:00:48.334Z,11.99
2018-04-11T04:01:48.395Z,11.94
2018-04-11T04:02:48.287Z,11.90
2018-04-11T04:03:48.297Z,11.90
2018-04-11T04:04:48.242Z,11.89
2018-04-11T04:05:48.315Z,11.83
2018-04-11T04:06:48.196Z,11.80
2018-04-11T04:07:48.264Z,11.77
2018-04-11T04:08:48.145Z,11.71
2018-04-11T04:09:48.237Z,11.67
2018-04-11T04:10:48.101Z,11.62
2018-04-11T04:11:48.145Z,11.68
2018-04-11T04:12:48.051Z,11.77
2018-04-11T04:13:48.092Z,11.70
2018-04-11T04:14:48.007Z,11.70
2018-04-11T04:15:48.069Z,11.54
2018-04-11T04:16:47.961Z,11.65
2018-04-11T04:17:47.978Z,11.64
2018-04-11T04:18:47.911Z,11.72
2018-04-11T04:19:48.034Z,11.70
2018-04-11T04:20:47.865Z,11.74
2018-04-11T04:21:47.902Z,11.67
2018-04-11T04:22:47.820Z,11.64
2018-04-11T04:23:47.816Z,11.72
2018-04-11T04:24:47.773Z,11.72
2018-04-11T04:25:47.822Z,11.74
2018-04-11T04:26:47.725Z,11.62
2018-04-11T04:27:47.733Z,11.72
2018-04-11T04:28:47.670Z,11.64
2018-04-11T04:29:47.743Z,11.65
2018-04-11T04:30:47.629Z,11.71
2018-04-11T04:31:47.655Z,11.64
2018-04-11T04:32:47.584Z,11.65
2018-04-11T04:33:47.672Z,11.67
2018-04-11T04:34:47.537Z,11.65
2018-04-11T04:35:47.577Z,11.78
2018-04-11T04:36:47.488Z,11.75
2018-04-11T04:37:47.487Z,11.70
2018-04-11T04:38:47.440Z,11.72
2018-04-11T04:39:47.499Z,11.75
2018-04-11T04:40:47.399Z,11.65
2018-04-11T04:41:47.408Z,11.65
2018-04-11T04:42:47.350Z,11.75
2018-04-11T04:43:47.441Z,11.75
2018-04-11T04:44:47.301Z,11.65
2018-04-11T04:45:47.331Z,11.80
2018-04-11T04:46:47.255Z,11.80
2018-04-11T04:47:47.342Z,11.61
2018-04-11T04:48:47.208Z,11.75
2018-04-11T04:49:47.254Z,11.62
2018-04-11T04:50:47.160Z,11.67
2018-04-11T04:51:47.157Z,11.68
2018-04-11T04:52:47.112Z,11.67
2018-04-11T04:53:47.177Z,11.77
2018-04-11T04:54:47.071Z,11.72
2018-04-11T04:55:47.087Z,11.67
2018-04-11T04:56:47.019Z,11.75
2018-04-11T04:57:47.098Z,11.70
2018-04-11T04:58:46.975Z,11.67
2018-04-11T04:59:47.009Z,11.64
2018-04-11T05:00:46.927Z,11.64
2018-04-11T05:01:46.921Z,11.72
2018-04-11T05:02:46.879Z,11.71
2018-04-11T05:03:46.933Z,11.74
2018-04-11T05:04:46.832Z,11.70
2018-04-11T05:05:46.844Z,11.65
2018-04-11T05:06:46.788Z,11.67
2018-04-11T05:07:46.857Z,11.70
2018-04-11T05:08:46.738Z,11.67
2018-04-11T05:09:46.769Z,11.67
2018-04-11T05:10:46.702Z,11.67
2018-04-11T05:11:46.784Z,11.68
2018-04-11T05:12:46.642Z,11.70
2018-04-11T05:13:46.691Z,11.67
2018-04-11T05:14:46.603Z,11.72
2018-04-11T05:15:46.606Z,11.77
2018-04-11T05:16:46.552Z,11.68
2018-04-11T05:17:46.613Z,11.59
2018-04-11T05:18:46.505Z,11.68
2018-04-11T05:19:46.520Z,11.74
2018-04-11T05:20:46.458Z,11.68
2018-04-11T05:21:46.543Z,11.74
2018-04-11T05:22:46.412Z,11.75
2018-04-11T05:23:46.440Z,11.72
2018-04-11T05:24:46.367Z,11.75
2018-04-11T05:25:46.352Z,11.75
2018-04-11T05:26:46.314Z,11.77
2018-04-11T05:27:46.364Z,11.83
2018-04-11T05:28:46.266Z,11.80
2018-04-11T05:29:46.280Z,11.85
2018-04-11T05:30:46.220Z,11.89
2018-04-11T05:31:46.289Z,11.82
2018-04-11T05:32:46.210Z,11.87
2018-04-11T05:33:46.197Z,11.97
2018-04-11T05:34:46.128Z,11.87
2018-04-11T05:35:46.208Z,11.99
2018-04-11T05:36:46.079Z,12.01
2018-04-11T05:37:46.122Z,11.97
2018-04-11T05:38:46.037Z,11.85
2018-04-11T05:39:46.032Z,11.93
2018-04-11T05:40:45.994Z,11.97
2018-04-11T05:41:46.044Z,12.02
2018-04-11T05:42:45.941Z,11.99
2018-04-11T05:43:45.980Z,12.05
2018-04-11T05:44:45.893Z,12.01
2018-04-11T05:45:45.970Z,12.09
2018-04-11T05:46:45.849Z,12.01
2018-04-11T05:47:45.874Z,12.08
2018-04-11T05:48:45.799Z,12.08
2018-04-11T05:49:45.887Z,12.02
2018-04-11T05:50:45.755Z,12.04
2018-04-11T05:51:45.797Z,12.05
2018-04-11T05:52:45.707Z,12.06
2018-04-11T05:53:45.706Z,12.15
2018-04-11T05:54:45.662Z,12.06
2018-04-11T05:55:45.718Z,12.13
2018-04-11T05:56:45.617Z,12.13
2018-04-11T05:57:45.629Z,12.11
2018-04-11T05:58:45.577Z,12.11
2018-04-11T05:59:45.642Z,12.05
2018-04-11T06:00:45.519Z,12.11
2018-04-11T06:01:45.553Z,12.12
2018-04-11T06:02:45.474Z,12.09
2018-04-11T06:03:45.563Z,12.13
2018-04-11T06:04:45.427Z,12.09
2018-04-11T06:05:45.475Z,12.11
2018-04-11T06:06:45.382Z,12.12
2018-04-11T06:07:45.385Z,12.11
2018-04-11T06:08:45.340Z,12.11
2018-04-11T06:09:45.393Z,12.04
2018-04-11T06:10:45.288Z,12.13
2018-04-11T06:11:45.337Z,12.12
2018-04-11T06:12:45.242Z,12.11
2018-04-11T06:13:45.316Z,12.15
2018-04-11T06:14:45.199Z,12.19
2018-04-11T06:15:45.229Z,12.21
2018-04-11T06:16:45.149Z,12.23
2018-04-11T06:17:45.139Z,12.23
2018-04-11T06:18:45.130Z,12.20
2018-04-11T06:19:45.151Z,12.20
2018-04-11T06:20:45.056Z,12.19
2018-04-11T06:21:45.061Z,12.16
2018-04-11T06:22:45.012Z,12.19
2018-04-11T06:23:45.075Z,12.12
2018-04-11T06:24:44.965Z,12.21
2018-04-11T06:25:44.983Z,12.23
2018-04-11T06:26:44.920Z,12.16
2018-04-11T06:27:44.996Z,12.20
2018-04-11T06:28:44.881Z,12.19
2018-04-11T06:29:44.910Z,12.20
2018-04-11T06:30:44.829Z,12.19
2018-04-11T06:31:44.824Z,12.21
2018-04-11T06:32:44.781Z,12.19
2018-04-11T06:33:44.854Z,12.21
2018-04-11T06:34:44.737Z,12.13
2018-04-11T06:35:44.749Z,12.20
2018-04-11T06:36:44.693Z,12.20
2018-04-11T06:37:44.765Z,12.24
2018-04-11T06:38:44.645Z,12.31
2018-04-11T06:39:44.675Z,12.31
2018-04-11T06:40:44.595Z,12.33
2018-04-11T06:41:44.584Z,12.31
2018-04-11T06:42:44.552Z,12.29
2018-04-11T06:43:44.599Z,12.31
2018-04-11T06:44:44.494Z,12.30
2018-04-11T06:45:44.510Z,12.39
2018-04-11T06:46:44.457Z,12.41
2018-04-11T06:47:44.543Z,12.46
2018-04-11T06:48:44.412Z,12.39
2018-04-11T06:49:44.439Z,12.45
2018-04-11T06:50:44.365Z,12.44
2018-04-11T06:51:44.453Z,12.45
2018-04-11T06:52:44.320Z,12.45
2018-04-11T06:53:44.361Z,12.42
2018-04-11T06:54:44.277Z,12.33
2018-04-11T06:55:44.275Z,12.41
2018-04-11T06:56:44.228Z,12.48
2018-04-11T06:57:44.326Z,12.48
2018-04-11T06:58:44.181Z,12.39
2018-04-11T06:59:44.217Z,12.46
2018-04-11T07:00:44.139Z,12.44
2018-04-11T07:01:44.212Z,12.45
2018-04-11T07:02:44.090Z,12.45
2018-04-11T07:03:44.130Z,12.54
2018-04-11T07:04:44.047Z,12.51
2018-04-11T07:05:44.040Z,12.45
2018-04-11T07:06:44.001Z,12.51
2018-04-11T07:07:44.054Z,12.52
2018-04-11T07:08:43.953Z,12.48
2018-04-11T07:09:43.963Z,12.54
2018-04-11T07:10:43.911Z,12.48
2018-04-11T07:11:43.977Z,12.44
2018-04-11T07:12:43.862Z,12.48
2018-04-11T07:13:43.888Z,12.44
2018-04-11T07:14:43.819Z,12.39
2018-04-11T07:15:43.902Z,12.45
2018-04-11T07:16:43.770Z,12.45
2018-04-11T07:17:43.813Z,12.37
2018-04-11T07:18:43.727Z,12.45
2018-04-11T07:19:43.828Z,12.45
2018-04-11T07:20:43.678Z,12.42
2018-04-11T07:21:43.738Z,12.51
2018-04-11T07:22:43.635Z,12.46
2018-04-11T07:23:43.651Z,12.54
2018-04-11T07:24:43.584Z,12.48
2018-04-11T07:25:43.714Z,12.48
2018-04-11T07:26:43.544Z,12.51
2018-04-11T07:27:43.575Z,12.54
2018-04-11T07:28:43.497Z,12.54
2018-04-11T07:29:43.487Z,12.57
2018-04-11T07:30:43.449Z,12.48
2018-04-11T07:31:43.502Z,12.54
2018-04-11T07:32:43.402Z,12.52
2018-04-11T07:33:43.449Z,12.51
2018-04-11T07:34:43.361Z,12.51
2018-04-11T07:35:43.428Z,12.62
2018-04-11T07:36:43.313Z,12.63
2018-04-11T07:37:43.339Z,12.63
2018-04-11T07:38:43.267Z,12.60
2018-04-11T07:39:43.352Z,12.64
2018-04-11T07:40:43.222Z,12.67
2018-04-11T07:41:43.263Z,12.57
2018-04-11T07:42:43.173Z,12.64
2018-04-11T07:43:43.179Z,12.59
2018-04-11T07:44:43.129Z,12.63
2018-04-11T07:45:43.189Z,12.66
2018-04-11T07:46:43.094Z,12.63
2018-04-11T07:47:43.133Z,12.56
2018-04-11T07:48:43.041Z,12.59
2018-04-11T07:49:43.114Z,12.67
2018-04-11T07:50:42.996Z,12.56
2018-04-11T07:51:43.030Z,12.57
2018-04-11T07:52:42.947Z,12.51
2018-04-11T07:53:43.040Z,12.52
2018-04-11T07:54:42.905Z,12.57
2018-04-11T07:55:42.951Z,12.54
2018-04-11T07:56:42.862Z,12.64
2018-04-11T07:57:42.864Z,12.70
2018-04-11T07:58:42.814Z,12.62
2018-04-11T07:59:42.876Z,12.66
2018-04-11T08:00:42.765Z,12.69
2018-04-11T08:01:42.792Z,12.75
2018-04-11T08:02:42.721Z,12.78
2018-04-11T08:03:42.805Z,12.84
2018-04-11T08:04:42.679Z,12.89
2018-04-11T08:05:42.717Z,12.87
2018-04-11T08:06:42.724Z,12.79
2018-04-11T08:07:42.606Z,12.84
2018-04-11T08:08:42.635Z,12.81
2018-04-11T08:09:42.562Z,12.79
2018-04-11T08:10:42.648Z,12.79
2018-04-11T08:11:42.520Z,12.81
2018-04-11T08:12:42.560Z,12.82
2018-04-11T08:13:42.473Z,12.77
2018-04-11T08:14:42.471Z,12.77
2018-04-11T08:15:42.426Z,12.81
2018-04-11T08:16:42.485Z,12.77
2018-04-11T08:17:42.381Z,12.74
2018-04-11T08:18:42.401Z,12.79
2018-04-11T08:19:42.336Z,12.78
2018-04-11T08:20:42.412Z,12.78
2018-04-11T08:21:42.289Z,12.79
2018-04-11T08:22:42.323Z,12.87
2018-04-11T08:23:42.243Z,12.89
2018-04-11T08:24:42.234Z,12.99
2018-04-11T08:25:42.202Z,12.97
2018-04-11T08:26:42.248Z,13.07
2018-04-11T08:27:42.153Z,13.06
2018-04-11T08:28:42.163Z,13.03
2018-04-11T08:29:42.107Z,13.07
2018-04-11T08:30:42.173Z,13.02
2018-04-11T08:31:42.064Z,13.07
2018-04-11T08:32:42.084Z,13.07
2018-04-11T08:33:42.021Z,13.07
2018-04-11T08:34:42.000Z,13.02
2018-04-11T08:35:41.976Z,13.04
2018-04-11T08:36:42.011Z,13.07
2018-04-11T08:37:41.934Z,13.09
2018-04-11T08:38:41.921Z,13.07
2018-04-11T08:39:41.883Z,13.07
2018-04-11T08:40:41.936Z,13.14
2018-04-11T08:41:41.839Z,13.15
2018-04-11T08:42:41.847Z,13.09
2018-04-11T08:43:41.794Z,13.02
2018-04-11T08:44:41.860Z,12.99
2018-04-11T08:45:41.748Z,12.99
2018-04-11T08:46:41.774Z,12.97
2018-04-11T08:47:41.707Z,12.96
2018-04-11T08:48:41.786Z,12.97
2018-04-11T08:49:41.656Z,12.99
2018-04-11T08:50:41.698Z,12.97
2018-04-11T08:51:41.619Z,12.99
2018-04-11T08:52:41.610Z,12.96
2018-04-11T08:53:41.567Z,12.99
2018-04-11T08:54:41.623Z,13.02
2018-04-11T08:55:41.525Z,12.93
2018-04-11T08:56:41.534Z,12.97
2018-04-11T08:57:41.477Z,13.09
2018-04-11T08:58:41.549Z,13.11
2018-04-11T08:59:41.433Z,13.06
2018-04-11T09:00:41.460Z,13.14
2018-04-11T09:01:41.387Z,13.17
2018-04-11T09:02:41.474Z,13.17
2018-04-11T09:03:41.345Z,13.17
2018-04-11T09:04:41.387Z,13.21
2018-04-11T09:05:41.297Z,13.18
2018-04-11T09:06:41.299Z,13.27
2018-04-11T09:07:41.253Z,13.24
2018-04-11T09:08:41.317Z,13.24
2018-04-11T09:09:41.211Z,13.18
2018-04-11T09:10:41.224Z,13.33
2018-04-11T09:11:41.164Z,13.24
2018-04-11T09:12:41.241Z,13.22
2018-04-11T09:13:41.121Z,13.25
2018-04-11T09:14:41.151Z,13.22
2018-04-11T09:15:41.076Z,13.32
2018-04-11T09:16:41.162Z,13.20
2018-04-11T09:17:41.026Z,13.22
2018-04-11T09:18:41.076Z,13.24
2018-04-11T09:19:40.988Z,13.27
2018-04-11T09:20:40.989Z,13.32
2018-04-11T09:21:40.939Z,13.32
2018-04-11T09:22:41.004Z,13.38
2018-04-11T09:23:40.895Z,13.44
2018-04-11T09:24:40.912Z,13.38
2018-04-11T09:25:40.850Z,13.46
2018-04-11T09:26:40.932Z,13.46
2018-04-11T09:27:40.807Z,13.51
2018-04-11T09:28:40.838Z,13.52
2018-04-11T09:29:40.775Z,13.46
2018-04-11T09:30:40.853Z,13.52
2018-04-11T09:31:40.742Z,13.52
2018-04-11T09:32:40.765Z,13.55
2018-04-11T09:33:40.677Z,13.56
2018-04-11T09:34:40.676Z,13.54
2018-04-11T09:35:40.630Z,13.54
2018-04-11T09:36:40.692Z,13.52
2018-04-11T09:37:40.583Z,13.52
2018-04-11T09:38:40.650Z,13.54
2018-04-11T09:39:40.540Z,13.56
2018-04-11T09:40:40.518Z,13.58
2018-04-11T09:41:40.509Z,13.55
2018-04-11T09:42:40.631Z,13.59
2018-04-11T09:43:40.453Z,13.58
2018-04-11T09:44:40.534Z,13.52
2018-04-11T09:45:40.406Z,13.52
2018-04-11T09:46:40.383Z,13.55
2018-04-11T09:47:40.460Z,13.55
2018-04-11T09:48:40.336Z,13.56
2018-04-11T09:49:40.475Z,13.54
2018-04-11T09:50:40.293Z,13.55
2018-04-11T09:51:40.389Z,13.55
2018-04-11T09:52:40.250Z,13.49
2018-04-11T09:53:40.299Z,13.52
2018-04-11T09:54:40.212Z,13.51
2018-04-11T09:55:40.317Z,13.54
2018-04-11T09:56:40.166Z,13.56
2018-04-11T09:57:40.228Z,13.49
2018-04-11T09:58:40.117Z,13.52
2018-04-11T09:59:40.242Z,13.56
2018-04-11T10:00:40.075Z,13.56
2018-04-11T10:01:40.152Z,13.61
2018-04-11T10:02:40.034Z,13.58
2018-04-11T10:03:40.165Z,13.52
2018-04-11T10:04:39.984Z,13.58
2018-04-11T10:05:40.077Z,13.58
2018-04-11T10:06:39.940Z,13.55
2018-04-11T10:07:40.092Z,13.47
2018-04-11T10:08:39.908Z,13.43
2018-04-11T10:09:40.002Z,13.43
2018-04-11T10:10:39.851Z,13.40
2018-04-11T10:11:40.016Z,13.38
2018-04-11T10:12:39.808Z,13.36
2018-04-11T10:13:39.790Z,13.29
2018-04-11T10:14:39.763Z,13.32
2018-04-11T10:15:39.784Z,13.27
2018-04-11T10:16:39.718Z,13.30
2018-04-11T10:17:39.775Z,13.27
2018-04-11T10:18:39.790Z,13.21
2018-04-11T10:19:39.686Z,13.17
2018-04-11T10:20:39.635Z,13.17
2018-04-11T10:21:39.708Z,13.20
2018-04-11T10:22:39.588Z,13.17
2018-04-11T10:23:39.609Z,13.15
2018-04-11T10:24:39.537Z,13.18
2018-04-11T10:25:39.622Z,13.18
2018-04-11T10:26:39.502Z,13.15
2018-04-11T10:27:39.532Z,13.15
2018-04-11T10:28:39.453Z,13.06
2018-04-11T10:29:39.544Z,13.09
2018-04-11T10:30:39.411Z,12.97
2018-04-11T10:31:39.458Z,12.99
2018-04-11T10:32:39.362Z,12.95
2018-04-11T10:33:39.389Z,13.00
2018-04-11T10:34:39.323Z,12.95
2018-04-11T10:35:39.377Z,12.99
2018-04-11T10:36:39.279Z,12.96
2018-04-11T10:37:39.287Z,12.96
2018-04-11T10:38:39.227Z,12.93
2018-04-11T10:39:39.300Z,12.85
2018-04-11T10:40:39.184Z,12.93
2018-04-11T10:41:39.219Z,12.93
2018-04-11T10:42:39.137Z,12.74
2018-04-11T10:43:39.225Z,12.85
2018-04-11T10:44:39.092Z,12.69
2018-04-11T10:45:39.132Z,12.77
2018-04-11T10:46:39.048Z,12.77
2018-04-11T10:47:39.041Z,12.75
2018-04-11T10:48:39.003Z,12.69
2018-04-11T10:49:39.056Z,12.75
2018-04-11T10:50:38.958Z,12.69
2018-04-11T10:51:38.967Z,12.66
2018-04-11T10:52:38.919Z,12.66
2018-04-11T10:53:38.978Z,12.59
2018-04-11T10:54:38.865Z,12.60
2018-04-11T10:55:38.891Z,12.69
2018-04-11T10:56:38.821Z,12.66
2018-04-11T10:57:38.904Z,12.67
2018-04-11T10:58:38.775Z,12.64
2018-04-11T10:59:38.814Z,12.51
2018-04-11T11:00:38.733Z,12.41
2018-04-11T11:01:38.723Z,12.42
2018-04-11T11:02:38.683Z,12.33
2018-04-11T11:03:38.739Z,12.34
2018-04-11T11:04:38.639Z,12.29
2018-04-11T11:05:38.649Z,12.29
2018-04-11T11:06:38.595Z,12.37
2018-04-11T11:07:38.660Z,12.34
2018-04-11T11:08:38.546Z,12.29
2018-04-11T11:09:38.574Z,12.30
2018-04-11T11:10:38.505Z,12.30
2018-04-11T11:11:38.583Z,12.19
2018-04-11T11:12:38.465Z,12.19
2018-04-11T11:13:38.493Z,12.16
2018-04-11T11:14:38.411Z,12.15
2018-04-11T11:15:38.509Z,12.16
2018-04-11T11:16:38.364Z,12.05
2018-04-11T11:17:38.410Z,11.97
2018-04-11T11:18:38.317Z,12.02
2018-04-11T11:19:38.323Z,11.99
2018-04-11T11:20:38.270Z,11.96
2018-04-11T11:21:38.337Z,11.96
2018-04-11T11:22:38.225Z,12.01
2018-04-11T11:23:38.244Z,12.04
2018-04-11T11:24:38.179Z,12.01
2018-04-11T11:25:38.256Z,11.90
2018-04-11T11:26:38.131Z,11.85
2018-04-11T11:27:38.166Z,11.77
2018-04-11T11:28:38.084Z,11.85
2018-04-11T11:29:38.076Z,11.80
2018-04-11T11:30:38.041Z,11.74
2018-04-11T11:31:38.089Z,11.67
2018-04-11T11:32:37.992Z,11.75
2018-04-11T11:33:37.997Z,11.75
2018-04-11T11:34:37.946Z,11.68
2018-04-11T11:35:38.011Z,11.78
2018-04-11T11:36:37.899Z,11.85
2018-04-11T11:37:37.922Z,11.80
2018-04-11T11:38:37.854Z,11.75
2018-04-11T11:39:37.933Z,11.77
2018-04-11T11:40:37.804Z,11.72
2018-04-11T11:41:37.845Z,11.75
2018-04-11T11:42:37.758Z,11.71
2018-04-11T11:43:37.759Z,11.67
2018-04-11T11:44:37.710Z,11.72
2018-04-11T11:45:37.771Z,11.75
2018-04-11T11:46:37.667Z,11.59
2018-04-11T11:47:37.679Z,11.65
2018-04-11T11:48:37.618Z,11.70
2018-04-11T11:49:37.694Z,11.74
2018-04-11T11:50:37.580Z,11.75
2018-04-11T11:51:37.603Z,11.80
2018-04-11T11:52:37.520Z,11.82
2018-04-11T11:53:37.611Z,11.72
2018-04-11T11:54:37.475Z,11.77
2018-04-11T11:55:37.523Z,11.75
2018-04-11T11:56:37.431Z,11.86
2018-04-11T11:57:37.434Z,11.75
2018-04-11T11:58:37.383Z,11.75
2018-04-11T11:59:38.467Z,11.77
2018-04-11T12:00:37.341Z,11.75
2018-04-11T12:01:37.354Z,11.64
2018-04-11T12:02:37.288Z,11.77
2018-04-11T12:03:37.367Z,11.59
2018-04-11T12:04:37.239Z,11.68
2018-04-11T12:05:37.278Z,11.78
2018-04-11T12:06:37.193Z,11.74
2018-04-11T12:07:37.187Z,11.65
2018-04-11T12:08:37.143Z,11.77
2018-04-11T12:09:37.201Z,11.72
2018-04-11T12:10:37.089Z,11.80
2018-04-11T12:11:37.108Z,11.71
2018-04-11T12:12:37.052Z,11.82
2018-04-11T12:13:37.123Z,11.85
2018-04-11T12:14:37.000Z,11.94
2018-04-11T12:15:37.033Z,11.87
2018-04-11T12:16:36.958Z,11.97
2018-04-11T12:17:37.046Z,12.04
2018-04-11T12:18:36.909Z,12.06
2018-04-11T12:19:36.953Z,12.02
2018-04-11T12:20:36.859Z,12.08
2018-04-11T12:21:36.868Z,12.02
2018-04-11T12:22:36.814Z,12.02
2018-04-11T12:23:36.870Z,12.01
2018-04-11T12:24:36.770Z,12.09
2018-04-11T12:25:36.781Z,12.19
2018-04-11T12:26:36.721Z,12.16
2018-04-11T12:27:36.795Z,12.19
2018-04-11T12:28:36.673Z,12.30
2018-04-11T12:29:36.727Z,12.38
2018-04-11T12:30:36.625Z,12.41
2018-04-11T12:31:36.620Z,12.42
2018-04-11T12:32:36.580Z,12.54
2018-04-11T12:33:36.633Z,12.57
2018-04-11T12:34:36.532Z,12.62
2018-04-11T12:35:36.542Z,12.57
2018-04-11T12:36:36.486Z,12.63
2018-04-11T12:37:36.558Z,12.60
2018-04-11T12:38:36.440Z,12.70
2018-04-11T12:39:36.465Z,12.60
2018-04-11T12:40:36.395Z,12.70
2018-04-11T12:41:36.476Z,12.67
2018-04-11T12:42:36.345Z,12.77
2018-04-11T12:43:36.389Z,12.77
2018-04-11T12:44:36.301Z,12.75
2018-04-11T12:45:36.299Z,12.71
2018-04-11T12:46:36.260Z,12.70
2018-04-11T12:47:36.317Z,12.71
2018-04-11T12:48:36.209Z,12.60
2018-04-11T12:49:36.224Z,12.71
2018-04-11T12:50:36.168Z,12.69
2018-04-11T12:51:36.234Z,12.74
2018-04-11T12:52:36.118Z,12.74